createdAt,value
2023-06-04T00:09:21.822Z,13.23
2023-06-04T00:19:22.395Z,12.93
2023-06-04T00:29:22.935Z,12.85
2023-06-04T00:39:23.508Z,12.78
2023-06-04T00:49:24.075Z,12.60
2023-06-04T00:59:24.611Z,12.53
2023-06-04T01:09:25.174Z,12.46
2023-06-04T01:19:25.728Z,12.35
2023-06-04T01:29:26.284Z,12.29
2023-06-04T01:39:26.844Z,12.02
2023-06-04T01:49:27.410Z,11.95
2023-06-04T01:59:27.963Z,11.88
2023-06-04T02:09:28.501Z,11.98
2023-06-04T02:19:28.985Z,11.88
2023-06-04T02:29:29.502Z,11.65
2023-06-04T02:39:30.024Z,11.57
2023-06-04T02:49:30.524Z,11.47
2023-06-04T02:59:31.011Z,11.52
2023-06-04T03:09:31.503Z,11.43
2023-06-04T03:19:32.062Z,11.42
2023-06-04T03:29:32.908Z,11.43
2023-06-04T03:39:33.379Z,11.51
2023-06-04T03:49:33.941Z,11.58
2023-06-04T03:59:34.450Z,11.58
2023-06-04T04:09:35.026Z,11.64
2023-06-04T04:19:35.558Z,11.70
2023-06-04T04:29:36.099Z,11.96
2023-06-04T04:39:36.617Z,12.32
2023-06-04T04:49:44.127Z,14.60
2023-06-04T04:59:37.625Z,15.96
2023-06-04T05:09:38.118Z,16.52
2023-06-04T05:19:38.620Z,17.07
2023-06-04T05:29:39.136Z,17.64
2023-06-04T05:39:39.636Z,17.96
2023-06-04T05:49:40.144Z,18.18
2023-06-04T05:59:40.650Z,17.86
2023-06-04T06:09:41.146Z,17.51
2023-06-04T06:19:41.665Z,17.31
2023-06-04T06:29:42.163Z,17.52
2023-06-04T06:39:42.658Z,17.68
2023-06-04T06:49:43.158Z,17.96
2023-06-04T06:59:43.659Z,18.08
2023-06-04T07:09:44.185Z,18.10
2023-06-04T07:19:44.684Z,18.39
2023-06-04T07:29:45.176Z,18.60
2023-06-04T07:39:45.675Z,18.80
2023-06-04T07:49:58.463Z,18.78
2023-06-04T07:59:47.604Z,18.81
2023-06-04T08:09:47.112Z,18.81
2023-06-04T08:19:47.592Z,18.90
2023-06-04T08:29:48.094Z,19.10
2023-06-04T08:39:48.653Z,19.25
2023-06-04T08:49:49.178Z,19.32
2023-06-04T08:59:49.705Z,19.92
2023-06-04T09:09:57.579Z,19.94
2023-06-04T09:19:52.048Z,19.95
2023-06-04T09:29:51.594Z,20.03
2023-06-04T09:39:52.058Z,20.24
2023-06-04T09:49:52.557Z,20.38
2023-06-04T09:59:53.033Z,20.42
2023-06-04T10:09:53.528Z,20.72
2023-06-04T10:19:54.070Z,20.99
2023-06-04T10:29:54.579Z,20.84
2023-06-04T10:39:55.085Z,21.17
2023-06-04T10:50:02.595Z,21.61
2023-06-04T10:59:56.087Z,21.58
2023-06-04T11:09:56.595Z,21.61
2023-06-04T11:19:57.170Z,21.74
2023-06-04T11:29:57.683Z,22.18
2023-06-04T11:39:58.190Z,22.35
2023-06-04T11:49:58.725Z,22.62
2023-06-04T11:59:59.218Z,22.24
2023-06-04T12:09:59.777Z,22.18
2023-06-04T12:20:00.300Z,22.15
2023-06-04T12:30:00.825Z,22.68
2023-06-04T12:40:01.330Z,23.20
2023-06-04T12:50:01.833Z,22.91
2023-06-04T13:00:02.303Z,22.64
2023-06-04T13:10:02.809Z,22.95
2023-06-04T13:20:03.319Z,22.91
2023-06-04T13:30:03.935Z,22.72
2023-06-04T13:40:04.393Z,23.15
2023-06-04T13:50:04.909Z,23.09
2023-06-04T14:00:05.407Z,23.04
2023-06-04T14:10:05.902Z,22.92
2023-06-04T14:20:06.428Z,23.10
2023-06-04T14:30:06.954Z,23.42
2023-06-04T14:40:07.450Z,23.02
2023-06-04T14:50:07.947Z,22.79
2023-06-04T15:00:08.530Z,22.90
2023-06-04T15:10:08.981Z,23.02
2023-06-04T15:20:09.495Z,22.94
2023-06-04T15:30:10.007Z,22.82
2023-06-04T15:40:10.512Z,22.97
2023-06-04T15:50:11.009Z,22.98
2023-06-04T16:00:11.532Z,22.95
2023-06-04T16:10:12.042Z,22.94
2023-06-04T16:20:12.536Z,23.05
2023-06-04T16:30:13.071Z,22.77
2023-06-04T16:40:13.600Z,22.67
2023-06-04T16:50:22.118Z,22.68
2023-06-04T17:00:26.294Z,22.60
2023-06-04T17:10:16.471Z,22.55
2023-06-04T17:20:15.969Z,22.49
2023-06-04T17:30:16.469Z,22.46
2023-06-04T17:40:16.992Z,22.57
2023-06-04T17:50:17.500Z,22.54
2023-06-04T18:00:18.014Z,22.46
2023-06-04T18:10:18.512Z,22.40
2023-06-04T18:20:19.004Z,21.92
2023-06-04T18:30:19.519Z,21.65
2023-06-04T18:40:20.010Z,21.43
2023-06-04T18:50:20.510Z,21.24
2023-06-04T19:00:21.015Z,20.94
2023-06-04T19:10:21.514Z,20.66
2023-06-04T19:20:22.019Z,20.38
2023-06-04T19:30:22.541Z,20.11
2023-06-04T19:40:23.029Z,19.78
2023-06-04T19:50:23.534Z,19.56
2023-06-04T20:00:24.042Z,19.25
2023-06-04T20:10:24.548Z,19.02
2023-06-04T20:20:25.108Z,18.80
2023-06-04T20:30:25.691Z,18.72
2023-06-04T20:40:26.276Z,18.52
2023-06-04T20:50:26.854Z,18.42
2023-06-04T21:00:27.426Z,18.30
2023-06-04T21:10:27.983Z,18.18
2023-06-04T21:20:28.530Z,18.05
2023-06-04T21:30:29.087Z,17.87
2023-06-04T21:40:29.649Z,17.70
2023-06-04T21:50:30.205Z,17.55
2023-06-04T22:00:30.763Z,17.44
2023-06-04T22:10:31.320Z,17.28
2023-06-04T22:20:31.867Z,17.12
2023-06-04T22:30:32.409Z,16.98
2023-06-04T22:40:32.973Z,16.82
2023-06-04T22:50:33.525Z,16.66
2023-06-04T23:00:41.120Z,16.56
2023-06-04T23:10:34.632Z,16.48
2023-06-04T23:20:35.183Z,16.39
2023-06-04T23:30:35.730Z,16.27
2023-06-04T23:40:36.282Z,16.00
2023-06-04T23:50:36.857Z,15.78
